createdAt,value
2022-10-16T00:00:54.814Z,16.48
2022-10-16T00:01:57.353Z,16.48
2022-10-16T00:02:59.651Z,16.54
2022-10-16T00:04:02.670Z,16.53
2022-10-16T00:05:05.919Z,16.55
2022-10-16T00:06:10.117Z,16.48
2022-10-16T00:07:12.276Z,16.47
2022-10-16T00:08:14.499Z,16.47
2022-10-16T00:09:16.768Z,16.48
2022-10-16T00:10:18.955Z,16.49
2022-10-16T00:11:24.748Z,16.48
2022-10-16T00:12:27.253Z,16.51
2022-10-16T00:13:30.567Z,16.53
2022-10-16T00:14:32.747Z,16.55
2022-10-16T00:15:40.057Z,16.44
2022-10-16T00:16:42.887Z,16.36
2022-10-16T00:17:45.060Z,16.42
2022-10-16T00:18:47.487Z,16.46
2022-10-16T00:19:49.715Z,16.47
2022-10-16T00:21:16.255Z,16.54
2022-10-16T00:22:37.166Z,16.58
2022-10-16T00:23:40.058Z,16.61
2022-10-16T00:24:42.190Z,16.64
2022-10-16T00:25:44.558Z,16.64
2022-10-16T00:26:50.033Z,16.65
2022-10-16T00:27:52.206Z,16.67
2022-10-16T00:28:54.461Z,16.71
2022-10-16T00:29:56.808Z,16.72
2022-10-16T00:30:59.078Z,16.66
2022-10-16T00:32:01.231Z,16.58
2022-10-16T00:33:03.458Z,16.63
2022-10-16T00:34:05.635Z,16.67
2022-10-16T00:35:07.899Z,16.65
2022-10-16T00:36:12.834Z,16.64
2022-10-16T00:37:15.046Z,16.53
2022-10-16T00:38:17.924Z,16.47
2022-10-16T00:39:20.397Z,16.42
2022-10-16T00:40:22.563Z,16.25
2022-10-16T00:41:25.610Z,16.27
2022-10-16T00:42:28.366Z,16.25
2022-10-16T00:43:33.475Z,16.32
2022-10-16T00:45:09.282Z,16.12
2022-10-16T00:46:31.053Z,16.11
2022-10-16T00:47:37.962Z,16.12
2022-10-16T00:48:40.257Z,16.17
2022-10-16T00:49:42.489Z,16.29
2022-10-16T00:50:44.810Z,16.31
2022-10-16T00:51:54.914Z,16.27
2022-10-16T00:52:59.544Z,16.28
2022-10-16T00:54:05.143Z,16.21
2022-10-16T00:55:09.403Z,16.12
2022-10-16T00:56:12.023Z,16.10
2022-10-16T00:58:22.234Z,16.14
2022-10-16T00:59:33.626Z,16.16
2022-10-16T01:00:35.787Z,16.15
2022-10-16T01:01:37.979Z,16.17
2022-10-16T01:02:40.189Z,16.26
2022-10-16T01:03:42.347Z,16.24
2022-10-16T01:04:48.434Z,16.27
2022-10-16T01:06:00.811Z,16.24
2022-10-16T01:07:05.622Z,16.25
2022-10-16T01:08:18.568Z,16.29
2022-10-16T01:09:37.604Z,16.28
2022-10-16T01:10:49.378Z,16.24
2022-10-16T01:12:47.933Z,16.29
2022-10-16T01:13:56.100Z,16.31
2022-10-16T01:15:07.487Z,16.27
2022-10-16T01:16:23.850Z,16.31
2022-10-16T01:17:36.022Z,16.32
2022-10-16T01:18:47.832Z,16.35
2022-10-16T01:20:03.836Z,16.39
2022-10-16T01:21:16.592Z,16.36
2022-10-16T01:22:21.067Z,16.30
2022-10-16T01:23:33.804Z,16.38
2022-10-16T01:26:11.671Z,16.31
2022-10-16T01:27:26.400Z,16.36
2022-10-16T01:28:46.640Z,16.27
2022-10-16T01:30:05.579Z,16.18
2022-10-16T01:31:11.198Z,16.25
2022-10-16T01:32:21.294Z,16.19
2022-10-16T01:33:33.723Z,16.26
2022-10-16T01:34:41.931Z,16.37
2022-10-16T01:35:48.786Z,16.42
2022-10-16T01:37:05.514Z,16.48
2022-10-16T01:38:16.434Z,16.51
2022-10-16T01:39:22.332Z,16.39
2022-10-16T01:40:27.855Z,16.28
2022-10-16T01:41:47.353Z,16.37
2022-10-16T01:42:56.369Z,16.42
2022-10-16T01:44:01.248Z,16.47
2022-10-16T01:45:08.660Z,16.53
2022-10-16T01:46:11.557Z,16.54
2022-10-16T01:47:15.619Z,16.59
2022-10-16T01:48:20.305Z,16.63
2022-10-16T01:49:26.303Z,16.65
2022-10-16T01:50:28.753Z,16.65
2022-10-16T01:51:31.224Z,16.65
2022-10-16T01:52:37.573Z,16.67
2022-10-16T01:53:43.633Z,16.61
2022-10-16T01:54:51.009Z,16.60
2022-10-16T01:55:56.600Z,16.64
2022-10-16T01:57:00.017Z,16.63
2022-10-16T01:58:05.946Z,16.66
2022-10-16T01:59:13.323Z,16.67
2022-10-16T02:00:18.482Z,16.64
2022-10-16T02:01:24.037Z,16.64
2022-10-16T02:02:29.225Z,16.66
2022-10-16T02:03:35.091Z,16.69
2022-10-16T02:04:59.065Z,16.67
2022-10-16T02:06:01.214Z,16.71
2022-10-16T02:07:03.890Z,16.68
2022-10-16T02:08:06.218Z,16.69
2022-10-16T02:09:08.525Z,16.68
2022-10-16T02:10:11.282Z,16.66
2022-10-16T02:11:13.615Z,16.65
2022-10-16T02:12:37.720Z,16.48
2022-10-16T02:13:46.190Z,16.51
2022-10-16T02:14:48.403Z,16.37
2022-10-16T02:15:50.668Z,16.39
2022-10-16T02:16:56.531Z,16.44
2022-10-16T02:17:58.669Z,16.44
2022-10-16T02:19:01.001Z,16.41
2022-10-16T02:20:05.287Z,16.29
2022-10-16T02:21:11.723Z,16.25
2022-10-16T02:22:23.057Z,16.24
2022-10-16T02:24:06.600Z,16.22
2022-10-16T02:25:27.576Z,16.31
2022-10-16T02:26:36.451Z,16.33
2022-10-16T02:27:38.539Z,16.39
2022-10-16T02:28:49.399Z,16.43
2022-10-16T02:29:59.696Z,16.46
2022-10-16T02:31:05.669Z,16.44
2022-10-16T02:32:11.179Z,16.45
2022-10-16T02:33:15.415Z,16.48
2022-10-16T02:34:21.332Z,16.48
2022-10-16T02:35:24.752Z,16.42
2022-10-16T02:36:28.252Z,16.43
2022-10-16T02:37:31.082Z,16.43
2022-10-16T02:38:34.297Z,16.48
2022-10-16T02:39:36.466Z,16.49
2022-10-16T02:40:39.080Z,16.44
2022-10-16T02:41:41.495Z,16.36
2022-10-16T02:42:43.809Z,16.35
2022-10-16T02:43:46.022Z,16.37
2022-10-16T02:44:48.200Z,16.31
2022-10-16T02:45:50.349Z,16.35
2022-10-16T02:46:52.488Z,16.37
2022-10-16T02:47:54.616Z,16.39
2022-10-16T02:48:56.796Z,16.46
2022-10-16T02:49:59.559Z,16.36
2022-10-16T02:51:01.691Z,16.37
2022-10-16T02:52:03.962Z,16.30
2022-10-16T02:53:06.143Z,16.28
2022-10-16T02:54:08.375Z,16.26
2022-10-16T02:55:10.659Z,16.29
2022-10-16T02:56:13.029Z,16.38
2022-10-16T02:57:15.324Z,16.42
2022-10-16T02:58:17.635Z,16.42
2022-10-16T02:59:20.450Z,16.37
2022-10-16T03:00:22.882Z,16.31
2022-10-16T03:01:25.135Z,16.36
2022-10-16T03:02:27.376Z,16.31
2022-10-16T03:03:29.589Z,16.32
2022-10-16T03:04:31.734Z,16.27
2022-10-16T03:05:33.967Z,16.29
2022-10-16T03:06:36.174Z,16.20
2022-10-16T03:07:38.391Z,16.23
2022-10-16T03:08:40.566Z,16.29
2022-10-16T03:09:42.846Z,16.33
2022-10-16T03:10:45.057Z,16.29
2022-10-16T03:11:47.290Z,16.32
2022-10-16T03:12:49.511Z,16.32
2022-10-16T03:13:51.742Z,16.25
2022-10-16T03:14:53.897Z,16.19
2022-10-16T03:15:56.155Z,16.18
2022-10-16T03:16:58.406Z,16.16
2022-10-16T03:18:01.005Z,15.95
2022-10-16T03:19:03.204Z,16.01
2022-10-16T03:20:05.763Z,15.94
2022-10-16T03:21:08.065Z,15.96
2022-10-16T03:22:10.284Z,15.90
2022-10-16T03:23:12.801Z,15.84
2022-10-16T03:24:15.131Z,15.89
2022-10-16T03:25:17.793Z,15.99
2022-10-16T03:26:19.972Z,16.03
2022-10-16T03:27:22.146Z,16.08
2022-10-16T03:28:24.385Z,16.09
2022-10-16T03:29:26.898Z,15.92
2022-10-16T03:30:29.065Z,15.80
2022-10-16T03:31:31.681Z,15.73
2022-10-16T03:33:41.208Z,15.66
2022-10-16T03:34:43.484Z,15.69
2022-10-16T03:35:53.031Z,15.78
2022-10-16T03:36:55.304Z,15.89
2022-10-16T03:37:57.484Z,15.97
2022-10-16T03:38:59.650Z,15.94
2022-10-16T03:40:02.023Z,15.99
2022-10-16T03:41:04.921Z,16.07
2022-10-16T03:42:07.176Z,16.08
2022-10-16T03:43:09.383Z,16.09
2022-10-16T03:44:11.599Z,16.11
2022-10-16T03:45:13.778Z,16.08
2022-10-16T03:46:16.021Z,16.05
2022-10-16T03:47:22.416Z,16.08
2022-10-16T03:48:24.574Z,16.05
2022-10-16T03:49:26.759Z,16.04
2022-10-16T03:50:28.912Z,15.99
2022-10-16T03:51:31.330Z,15.99
2022-10-16T03:52:33.971Z,15.99
2022-10-16T03:53:36.198Z,16.00
2022-10-16T03:54:38.630Z,16.00
2022-10-16T03:55:42.773Z,15.99
2022-10-16T03:56:44.885Z,16.01
2022-10-16T03:57:47.179Z,16.03
2022-10-16T03:58:49.413Z,16.01
2022-10-16T03:59:51.740Z,16.08
2022-10-16T04:00:54.003Z,16.08
2022-10-16T04:01:56.188Z,16.07
2022-10-16T04:02:58.461Z,16.00
2022-10-16T04:04:00.758Z,16.05
2022-10-16T04:05:02.964Z,16.06
2022-10-16T04:06:05.276Z,16.07
2022-10-16T04:07:07.400Z,16.05
2022-10-16T04:08:09.609Z,16.01
2022-10-16T04:09:11.773Z,15.98
2022-10-16T04:10:13.966Z,15.94
2022-10-16T04:11:16.105Z,15.96
2022-10-16T04:12:18.403Z,15.96
2022-10-16T04:14:27.678Z,15.94
2022-10-16T04:15:29.935Z,15.92
2022-10-16T04:16:32.091Z,15.91
2022-10-16T04:17:34.306Z,15.90
2022-10-16T04:18:36.502Z,15.86
2022-10-16T04:19:38.675Z,15.83
2022-10-16T04:20:41.654Z,15.83
2022-10-16T04:21:43.793Z,15.84
2022-10-16T04:22:45.968Z,15.82
2022-10-16T04:23:48.139Z,15.80
2022-10-16T04:24:50.303Z,15.79
2022-10-16T04:25:52.427Z,15.75
2022-10-16T04:26:54.580Z,15.76
2022-10-16T04:27:57.311Z,15.77
2022-10-16T04:28:59.607Z,15.77
2022-10-16T04:30:02.016Z,15.73
2022-10-16T04:31:07.750Z,15.73
2022-10-16T04:32:10.338Z,15.76
2022-10-16T04:33:13.741Z,15.77
2022-10-16T04:34:15.924Z,15.74
2022-10-16T04:35:19.419Z,15.72
2022-10-16T04:36:24.262Z,15.69
2022-10-16T04:37:29.342Z,15.72
2022-10-16T04:38:31.747Z,15.71
2022-10-16T04:39:33.937Z,15.76
2022-10-16T04:40:39.161Z,15.71
2022-10-16T04:41:41.388Z,15.64
2022-10-16T04:42:43.555Z,15.61
2022-10-16T04:43:45.706Z,15.58
2022-10-16T04:44:48.140Z,15.47
2022-10-16T04:45:51.883Z,15.30
2022-10-16T04:46:54.074Z,15.31
2022-10-16T04:48:00.226Z,15.24
2022-10-16T04:49:02.396Z,15.16
2022-10-16T04:50:04.949Z,15.17
2022-10-16T04:51:07.087Z,15.08
2022-10-16T04:52:10.527Z,15.13
2022-10-16T04:53:13.321Z,15.19
2022-10-16T04:54:15.529Z,15.23
2022-10-16T04:55:17.724Z,15.34
2022-10-16T04:56:20.009Z,15.29
2022-10-16T04:57:22.224Z,15.15
2022-10-16T04:58:24.430Z,15.07
2022-10-16T04:59:26.652Z,15.00
2022-10-16T05:00:28.889Z,14.99
2022-10-16T05:01:30.995Z,15.01
2022-10-16T05:02:33.231Z,15.09
2022-10-16T05:03:35.434Z,15.13
2022-10-16T05:04:37.647Z,15.20
2022-10-16T05:05:43.627Z,15.24
2022-10-16T05:06:45.789Z,15.35
2022-10-16T05:07:48.920Z,15.37
2022-10-16T05:08:51.094Z,15.43
2022-10-16T05:09:54.378Z,15.43
2022-10-16T05:10:57.037Z,15.40
2022-10-16T05:11:59.228Z,15.36
2022-10-16T05:13:01.354Z,15.37
2022-10-16T05:14:03.753Z,15.46
2022-10-16T05:15:06.555Z,15.50
2022-10-16T05:16:08.678Z,15.53
2022-10-16T05:17:11.125Z,15.54
2022-10-16T05:18:13.266Z,15.54
2022-10-16T05:19:27.302Z,15.52
2022-10-16T05:20:30.484Z,15.56
2022-10-16T05:21:32.646Z,15.55
2022-10-16T05:22:34.916Z,15.53
2022-10-16T05:23:37.104Z,15.54
2022-10-16T05:24:39.314Z,15.46
2022-10-16T05:25:41.480Z,15.47
2022-10-16T05:26:43.682Z,15.51
2022-10-16T05:27:49.544Z,15.51
2022-10-16T05:28:51.823Z,15.56
2022-10-16T05:29:54.121Z,15.48
2022-10-16T05:30:56.826Z,15.47
2022-10-16T05:31:59.007Z,15.41
2022-10-16T05:33:01.159Z,15.48
2022-10-16T05:34:03.418Z,15.58
2022-10-16T05:35:07.596Z,15.58
2022-10-16T05:36:12.451Z,15.64
2022-10-16T05:37:14.608Z,15.66
2022-10-16T05:38:19.681Z,15.71
2022-10-16T05:39:21.920Z,15.73
2022-10-16T05:40:25.234Z,15.69
2022-10-16T05:41:27.463Z,15.50
2022-10-16T05:42:29.605Z,15.53
2022-10-16T05:43:33.520Z,15.38
2022-10-16T05:44:35.733Z,15.37
2022-10-16T05:45:38.084Z,15.45
2022-10-16T05:46:40.301Z,15.42
2022-10-16T05:47:42.847Z,15.23
2022-10-16T05:48:45.120Z,15.23
2022-10-16T05:49:47.368Z,15.13
2022-10-16T05:50:49.567Z,15.04
2022-10-16T05:51:51.764Z,14.96
2022-10-16T05:52:53.988Z,15.06
2022-10-16T05:53:56.117Z,15.12
2022-10-16T05:54:58.237Z,15.11
2022-10-16T05:56:00.484Z,15.19
2022-10-16T05:57:03.060Z,15.29
2022-10-16T05:58:05.197Z,15.34
2022-10-16T05:59:07.435Z,15.43
2022-10-16T06:00:10.646Z,15.35
2022-10-16T06:01:19.911Z,15.25
2022-10-16T06:02:22.161Z,15.09
2022-10-16T06:03:24.768Z,15.08
2022-10-16T06:04:26.888Z,15.06
2022-10-16T06:05:29.044Z,15.05
2022-10-16T06:06:31.801Z,15.03
2022-10-16T06:07:37.037Z,14.93
2022-10-16T06:08:39.786Z,14.97
2022-10-16T06:09:41.945Z,14.82
2022-10-16T06:10:44.681Z,14.91
2022-10-16T06:11:46.980Z,15.03
2022-10-16T06:12:49.289Z,15.12
2022-10-16T06:13:52.650Z,15.14
2022-10-16T06:14:54.843Z,15.20
2022-10-16T06:15:59.500Z,15.31
2022-10-16T06:17:01.703Z,15.23
2022-10-16T06:18:03.828Z,15.14
2022-10-16T06:19:07.143Z,15.02
2022-10-16T06:20:09.787Z,15.11
2022-10-16T06:21:18.064Z,15.03
2022-10-16T06:22:20.233Z,15.04
2022-10-16T06:23:22.587Z,15.06
2022-10-16T06:24:25.307Z,15.13
2022-10-16T06:25:27.535Z,15.10
2022-10-16T06:26:31.419Z,15.10
2022-10-16T06:27:34.082Z,15.20
2022-10-16T06:28:36.620Z,15.22
2022-10-16T06:29:39.483Z,15.16
2022-10-16T06:30:42.097Z,15.20
2022-10-16T06:31:44.297Z,15.27
2022-10-16T06:32:46.655Z,15.22
2022-10-16T06:33:52.353Z,15.13
2022-10-16T06:34:54.579Z,15.06
2022-10-16T06:36:11.922Z,15.21
2022-10-16T06:37:14.203Z,15.26
2022-10-16T06:38:19.580Z,15.31
2022-10-16T06:39:21.731Z,15.20
2022-10-16T06:40:24.234Z,15.16
2022-10-16T06:41:26.470Z,15.20
2022-10-16T06:42:28.975Z,15.31
2022-10-16T06:43:33.364Z,15.40
2022-10-16T06:44:35.618Z,15.42
2022-10-16T06:45:37.832Z,15.45
2022-10-16T06:46:40.217Z,15.57
2022-10-16T06:47:42.569Z,15.61
2022-10-16T06:48:45.088Z,15.46
2022-10-16T06:49:51.772Z,15.36
2022-10-16T06:51:08.122Z,15.33
2022-10-16T06:52:10.686Z,15.25
2022-10-16T06:53:13.007Z,15.19
2022-10-16T06:54:16.659Z,15.27
2022-10-16T06:55:18.984Z,15.27
2022-10-16T06:56:23.626Z,15.25
2022-10-16T06:57:25.775Z,15.18
2022-10-16T06:58:27.929Z,15.18
2022-10-16T06:59:30.130Z,15.04
2022-10-16T07:00:35.463Z,15.07
2022-10-16T07:01:38.018Z,15.20
2022-10-16T07:02:40.239Z,15.26
2022-10-16T07:03:44.132Z,15.33
2022-10-16T07:04:46.327Z,15.21
2022-10-16T07:05:48.661Z,15.16
2022-10-16T07:06:52.502Z,15.20
2022-10-16T07:07:54.968Z,15.26
2022-10-16T07:08:57.409Z,15.36
2022-10-16T07:09:59.727Z,15.40
2022-10-16T07:11:04.238Z,15.41
2022-10-16T07:12:06.801Z,15.48
2022-10-16T07:13:09.058Z,15.42
2022-10-16T07:14:17.395Z,15.37
2022-10-16T07:15:19.562Z,15.46
2022-10-16T07:16:25.587Z,15.56
2022-10-16T07:17:29.656Z,15.67
2022-10-16T07:18:33.277Z,15.73
2022-10-16T07:19:35.735Z,15.98
2022-10-16T07:20:38.431Z,16.17
2022-10-16T07:21:43.567Z,16.19
2022-10-16T07:22:48.898Z,16.22
2022-10-16T07:23:55.959Z,16.46
2022-10-16T07:25:00.881Z,16.58
2022-10-16T07:26:03.642Z,16.70
2022-10-16T07:27:05.848Z,16.75
2022-10-16T07:28:08.318Z,16.80
2022-10-16T07:29:19.023Z,16.86
2022-10-16T07:30:21.234Z,16.93
2022-10-16T07:31:24.353Z,16.87
2022-10-16T07:32:30.052Z,16.94
2022-10-16T07:33:33.553Z,17.01
2022-10-16T07:34:35.737Z,16.83
2022-10-16T07:35:48.709Z,16.87
2022-10-16T07:36:51.840Z,16.88
2022-10-16T07:37:54.069Z,17.05
2022-10-16T07:38:58.944Z,17.09
2022-10-16T07:40:02.608Z,17.04
2022-10-16T07:41:08.065Z,17.06
2022-10-16T07:42:10.347Z,17.27
2022-10-16T07:43:12.954Z,17.34
2022-10-16T07:44:16.668Z,17.27
2022-10-16T07:45:18.828Z,17.34
2022-10-16T07:46:23.152Z,17.37
2022-10-16T07:47:25.746Z,17.47
2022-10-16T07:48:29.939Z,17.31
2022-10-16T07:49:32.338Z,17.36
2022-10-16T07:50:34.654Z,17.47
2022-10-16T07:51:36.933Z,17.61
2022-10-16T07:52:39.152Z,17.74
2022-10-16T07:53:41.539Z,17.63
2022-10-16T07:54:43.767Z,17.64
2022-10-16T07:55:46.019Z,17.60
2022-10-16T07:56:48.170Z,17.67
2022-10-16T07:57:50.414Z,17.87
2022-10-16T07:58:52.764Z,17.68
2022-10-16T07:59:54.965Z,17.84
2022-10-16T08:00:57.588Z,17.98
2022-10-16T08:01:59.770Z,18.08
2022-10-16T08:03:02.492Z,17.95
2022-10-16T08:05:08.406Z,17.96
2022-10-16T08:06:11.027Z,17.98
2022-10-16T08:07:13.391Z,17.95
2022-10-16T08:08:20.127Z,17.88
2022-10-16T08:09:25.152Z,17.85
2022-10-16T08:10:30.570Z,17.95
2022-10-16T08:11:33.232Z,18.13
2022-10-16T08:12:35.393Z,18.28
2022-10-16T08:13:38.189Z,18.33
2022-10-16T08:14:47.695Z,18.49
2022-10-16T08:15:50.097Z,18.51
2022-10-16T08:16:52.245Z,18.30
2022-10-16T08:18:03.516Z,18.16
2022-10-16T08:19:05.769Z,18.27
2022-10-16T08:20:08.756Z,18.33
2022-10-16T08:21:20.220Z,18.54
2022-10-16T08:22:23.843Z,18.28
2022-10-16T08:23:27.154Z,18.28
2022-10-16T08:24:31.836Z,18.40
2022-10-16T08:25:39.787Z,18.59
2022-10-16T08:26:42.197Z,18.70
2022-10-16T08:27:45.558Z,18.85
2022-10-16T08:28:51.655Z,19.07
2022-10-16T08:29:53.933Z,19.44
2022-10-16T08:30:57.785Z,19.88
2022-10-16T08:31:59.977Z,20.35
2022-10-16T08:33:02.568Z,20.35
2022-10-16T08:34:04.797Z,20.24
2022-10-16T08:35:07.454Z,20.44
2022-10-16T08:36:10.992Z,20.13
2022-10-16T08:37:14.651Z,19.72
2022-10-16T08:38:16.816Z,19.79
2022-10-16T08:39:19.034Z,19.75
2022-10-16T08:40:32.027Z,19.90
2022-10-16T08:41:57.267Z,19.69
2022-10-16T08:43:22.014Z,19.41
2022-10-16T08:44:54.947Z,19.32
2022-10-16T08:46:16.376Z,19.44
2022-10-16T08:47:35.473Z,19.52
2022-10-16T08:48:51.177Z,19.63
2022-10-16T08:50:02.769Z,19.41
2022-10-16T08:51:06.889Z,19.23
2022-10-16T08:52:14.780Z,19.33
2022-10-16T08:53:37.099Z,19.31
2022-10-16T08:54:44.571Z,19.37
2022-10-16T08:55:53.242Z,19.26
2022-10-16T08:56:57.596Z,19.48
2022-10-16T08:58:03.183Z,19.60
2022-10-16T08:59:11.414Z,19.69
2022-10-16T09:00:15.647Z,19.59
2022-10-16T09:01:20.226Z,19.68
2022-10-16T09:02:32.199Z,19.92
2022-10-16T09:04:11.179Z,20.30
2022-10-16T09:05:30.469Z,20.74
2022-10-16T09:06:49.895Z,21.18
2022-10-16T09:07:55.009Z,21.28
2022-10-16T09:09:16.720Z,21.14
2022-10-16T09:10:34.551Z,21.23
2022-10-16T09:12:01.087Z,21.64
2022-10-16T09:13:33.207Z,22.06
2022-10-16T09:14:40.495Z,21.89
2022-10-16T09:16:15.727Z,21.88
2022-10-16T09:17:45.359Z,22.34
2022-10-16T09:19:02.884Z,22.31
2022-10-16T09:20:31.405Z,22.56
2022-10-16T09:21:37.654Z,22.95
2022-10-16T09:22:40.348Z,23.03
2022-10-16T09:23:42.687Z,22.94
2022-10-16T09:24:44.931Z,22.77
2022-10-16T09:25:49.952Z,22.85
2022-10-16T09:26:52.898Z,22.56
2022-10-16T09:27:55.762Z,22.19
2022-10-16T09:28:57.990Z,22.09
2022-10-16T09:30:00.604Z,22.33
2022-10-16T09:31:03.722Z,22.45
2022-10-16T09:32:13.079Z,22.56
2022-10-16T09:33:16.800Z,22.38
2022-10-16T09:34:31.172Z,22.26
2022-10-16T09:35:36.484Z,22.33
2022-10-16T09:36:45.802Z,21.98
2022-10-16T09:37:50.586Z,21.53
2022-10-16T09:39:04.222Z,21.46
2022-10-16T09:40:07.736Z,21.74
2022-10-16T09:41:20.755Z,21.79
2022-10-16T09:42:29.486Z,21.68
2022-10-16T09:43:47.769Z,21.77
2022-10-16T09:44:52.176Z,21.69
2022-10-16T09:45:59.659Z,21.30
2022-10-16T09:47:22.767Z,21.30
2022-10-16T09:48:29.060Z,21.04
2022-10-16T09:49:31.262Z,21.08
2022-10-16T09:50:34.237Z,21.17
2022-10-16T09:51:38.198Z,20.91
2022-10-16T09:52:40.412Z,20.74
2022-10-16T09:53:45.683Z,20.56
2022-10-16T09:54:59.685Z,20.51
2022-10-16T09:56:01.894Z,20.44
2022-10-16T09:57:17.815Z,20.50
2022-10-16T09:58:24.401Z,20.58
2022-10-16T09:59:29.033Z,20.79
2022-10-16T10:00:32.449Z,21.15
2022-10-16T10:01:40.596Z,21.45
2022-10-16T10:02:43.111Z,21.69
2022-10-16T10:03:46.126Z,22.09
2022-10-16T10:04:55.307Z,22.27
2022-10-16T10:05:59.877Z,22.70
2022-10-16T10:07:04.277Z,23.23
2022-10-16T10:08:07.375Z,23.70
2022-10-16T10:09:22.415Z,23.28
2022-10-16T10:10:32.868Z,23.46
2022-10-16T10:12:27.342Z,23.55
2022-10-16T10:13:29.756Z,24.03
2022-10-16T10:14:43.539Z,23.86
2022-10-16T10:15:46.340Z,23.53
2022-10-16T10:16:49.454Z,23.37
2022-10-16T10:17:54.107Z,23.33
2022-10-16T10:19:00.974Z,23.13
2022-10-16T10:20:26.858Z,22.98
2022-10-16T10:21:29.062Z,23.09
2022-10-16T10:22:39.886Z,23.04
2022-10-16T10:23:42.086Z,23.02
2022-10-16T10:24:46.063Z,22.89
2022-10-16T10:26:02.687Z,22.81
2022-10-16T10:27:17.669Z,22.86
2022-10-16T10:28:43.446Z,22.74
2022-10-16T10:29:59.238Z,22.81
2022-10-16T10:31:25.263Z,22.83
2022-10-16T10:32:36.885Z,22.91
2022-10-16T10:33:47.754Z,22.82
2022-10-16T10:35:05.626Z,22.67
2022-10-16T10:36:31.177Z,22.56
2022-10-16T10:37:43.160Z,22.47
2022-10-16T10:39:15.980Z,22.46
2022-10-16T10:40:24.206Z,22.41
2022-10-16T10:42:04.097Z,22.59
2022-10-16T10:43:20.933Z,22.80
2022-10-16T10:44:54.822Z,22.89
2022-10-16T10:46:04.416Z,22.93
2022-10-16T10:47:21.378Z,22.85
2022-10-16T10:48:43.597Z,22.27
2022-10-16T10:49:55.594Z,22.13
2022-10-16T10:51:03.113Z,22.22
2022-10-16T10:52:20.273Z,22.75
2022-10-16T10:53:52.924Z,22.84
2022-10-16T10:55:16.638Z,22.88
2022-10-16T10:56:43.617Z,22.78
2022-10-16T10:57:48.427Z,23.03
2022-10-16T10:59:37.874Z,23.13
2022-10-16T11:00:52.013Z,23.13
2022-10-16T11:02:01.847Z,23.15
2022-10-16T11:03:31.616Z,22.93
2022-10-16T11:04:51.178Z,23.12
2022-10-16T11:06:11.202Z,23.31
2022-10-16T11:07:28.517Z,23.45
2022-10-16T11:08:39.687Z,23.46
2022-10-16T11:09:48.335Z,23.67
2022-10-16T11:10:58.627Z,23.89
2022-10-16T11:12:13.617Z,23.81
2022-10-16T11:13:22.135Z,23.08
2022-10-16T11:14:39.674Z,22.88
2022-10-16T11:15:44.918Z,22.78
2022-10-16T11:16:58.009Z,22.70
2022-10-16T11:18:12.643Z,22.51
2022-10-16T11:19:37.971Z,22.18
2022-10-16T11:20:50.067Z,21.84
2022-10-16T11:22:20.705Z,21.83
2022-10-16T11:23:42.935Z,21.97
2022-10-16T11:24:55.083Z,21.82
2022-10-16T11:26:03.134Z,21.69
2022-10-16T11:27:09.855Z,21.86
2022-10-16T11:28:16.892Z,22.01
2022-10-16T11:29:30.411Z,22.26
2022-10-16T11:30:41.729Z,22.11
2022-10-16T11:31:51.174Z,22.16
2022-10-16T11:33:05.296Z,21.90
2022-10-16T11:34:19.583Z,21.85
2022-10-16T11:35:44.042Z,22.11
2022-10-16T11:37:13.503Z,21.91
2022-10-16T11:38:51.044Z,21.73
2022-10-16T11:39:59.535Z,22.18
2022-10-16T11:41:13.737Z,22.41
2022-10-16T11:43:11.433Z,22.71
2022-10-16T11:44:54.079Z,23.02
2022-10-16T11:46:05.317Z,23.26
2022-10-16T11:47:40.000Z,22.91
2022-10-16T11:48:55.274Z,22.99
2022-10-16T11:50:02.276Z,22.74
2022-10-16T11:51:41.958Z,22.78
2022-10-16T11:53:04.486Z,23.01
2022-10-16T11:54:23.443Z,22.80
2022-10-16T11:55:34.147Z,23.02
2022-10-16T11:56:40.666Z,22.86
2022-10-16T11:57:56.192Z,23.04
2022-10-16T11:59:09.301Z,22.74
2022-10-16T12:00:29.898Z,22.48
2022-10-16T12:02:01.175Z,22.51
2022-10-16T12:03:24.219Z,22.27
2022-10-16T12:04:47.159Z,22.30
2022-10-16T12:05:49.167Z,22.27
2022-10-16T12:06:58.689Z,22.28
2022-10-16T12:08:06.515Z,22.52
2022-10-16T12:09:26.292Z,22.27
2022-10-16T12:10:32.552Z,22.14
2022-10-16T12:11:38.364Z,22.56
2022-10-16T12:12:41.193Z,22.70
2022-10-16T12:13:44.443Z,22.65
2022-10-16T12:15:11.665Z,22.87
2022-10-16T12:16:14.600Z,23.04
2022-10-16T12:17:37.425Z,22.66
2022-10-16T12:18:43.757Z,22.95
2022-10-16T12:19:58.756Z,23.30
2022-10-16T12:21:08.370Z,23.35
2022-10-16T12:22:20.452Z,22.93
2022-10-16T12:23:23.967Z,23.14
2022-10-16T12:24:42.594Z,23.18
2022-10-16T12:25:58.237Z,22.98
2022-10-16T12:27:01.616Z,22.77
2022-10-16T12:28:16.805Z,22.79
2022-10-16T12:29:34.231Z,22.83
2022-10-16T12:30:38.172Z,22.88
2022-10-16T12:31:54.798Z,23.04
2022-10-16T12:33:07.477Z,23.23
2022-10-16T12:34:33.388Z,23.13
2022-10-16T12:35:45.400Z,23.03
2022-10-16T12:36:48.258Z,22.92
2022-10-16T12:37:54.263Z,22.86
2022-10-16T12:38:56.915Z,22.88
2022-10-16T12:40:00.378Z,22.71
2022-10-16T12:41:06.190Z,22.72
2022-10-16T12:42:25.479Z,22.33
2022-10-16T12:43:38.420Z,22.48
2022-10-16T12:44:40.601Z,22.75
2022-10-16T12:45:42.968Z,22.81
2022-10-16T12:46:45.301Z,22.90
2022-10-16T12:47:54.558Z,23.04
2022-10-16T12:49:15.084Z,23.11
2022-10-16T12:50:43.439Z,23.10
2022-10-16T12:51:45.949Z,23.23
2022-10-16T12:52:48.184Z,23.22
2022-10-16T12:54:06.343Z,23.11
2022-10-16T12:55:18.413Z,23.08
2022-10-16T12:56:27.854Z,23.08
2022-10-16T12:57:42.416Z,22.68
2022-10-16T12:59:17.593Z,22.51
2022-10-16T13:00:26.364Z,22.48
2022-10-16T13:01:57.691Z,22.56
2022-10-16T13:03:14.993Z,22.45
2022-10-16T13:04:41.523Z,22.66
2022-10-16T13:06:38.259Z,22.74
2022-10-16T13:08:12.522Z,22.94
2022-10-16T13:09:53.243Z,22.97
2022-10-16T13:11:39.290Z,22.98
2022-10-16T13:13:22.902Z,22.97
2022-10-16T13:14:54.492Z,23.02
2022-10-16T13:16:08.477Z,22.94
2022-10-16T13:17:32.288Z,22.88
2022-10-16T13:18:46.549Z,22.88
2022-10-16T13:19:59.874Z,22.84
2022-10-16T13:21:31.854Z,22.64
2022-10-16T13:23:15.743Z,22.32
2022-10-16T13:24:42.919Z,22.22
2022-10-16T13:26:20.633Z,21.91
2022-10-16T13:27:41.434Z,21.69
2022-10-16T13:28:44.004Z,21.68
2022-10-16T13:29:53.009Z,21.67
2022-10-16T13:31:01.860Z,21.74
2022-10-16T13:32:14.283Z,21.85
2022-10-16T13:33:18.640Z,21.91
2022-10-16T13:34:32.237Z,21.99
2022-10-16T13:35:36.344Z,22.03
2022-10-16T13:36:51.137Z,22.13
2022-10-16T13:38:07.178Z,22.20
2022-10-16T13:39:25.029Z,22.23
2022-10-16T13:40:27.551Z,22.30
2022-10-16T13:41:30.287Z,22.35
2022-10-16T13:42:34.475Z,22.45
2022-10-16T13:43:54.225Z,22.51
2022-10-16T13:44:57.386Z,22.21
2022-10-16T13:46:03.304Z,22.18
2022-10-16T13:47:05.701Z,22.15
2022-10-16T13:48:13.370Z,22.04
2022-10-16T13:49:17.547Z,21.80
2022-10-16T13:50:20.234Z,21.74
2022-10-16T13:52:25.796Z,21.79
2022-10-16T13:53:30.904Z,21.98
2022-10-16T13:54:33.177Z,22.06
2022-10-16T13:55:35.582Z,21.79
2022-10-16T13:56:41.631Z,21.70
2022-10-16T13:57:44.188Z,21.55
2022-10-16T13:58:48.201Z,21.45
2022-10-16T13:59:51.247Z,21.54
2022-10-16T14:01:00.537Z,21.69
2022-10-16T14:02:31.810Z,21.61
2022-10-16T14:03:36.756Z,21.47
2022-10-16T14:04:40.043Z,21.41
2022-10-16T14:05:56.842Z,21.39
2022-10-16T14:06:59.159Z,21.49
2022-10-16T14:08:02.108Z,21.52
2022-10-16T14:09:28.857Z,21.47
2022-10-16T14:10:33.564Z,21.33
2022-10-16T14:11:55.630Z,21.22
2022-10-16T14:12:59.263Z,21.25
2022-10-16T14:14:03.477Z,21.24
2022-10-16T14:15:06.553Z,21.17
2022-10-16T14:16:14.270Z,21.26
2022-10-16T14:17:21.154Z,21.20
2022-10-16T14:18:29.865Z,21.19
2022-10-16T14:19:35.672Z,21.20
2022-10-16T14:20:37.917Z,21.16
2022-10-16T14:21:41.803Z,21.06
2022-10-16T14:22:44.430Z,20.94
2022-10-16T14:23:46.695Z,20.89
2022-10-16T14:24:50.108Z,20.89
2022-10-16T14:25:55.441Z,20.86
2022-10-16T14:26:58.473Z,20.82
2022-10-16T14:29:18.972Z,20.74
2022-10-16T14:30:23.113Z,20.73
2022-10-16T14:31:31.931Z,20.71
2022-10-16T14:32:35.392Z,20.67
2022-10-16T14:33:37.886Z,20.70
2022-10-16T14:34:41.369Z,20.70
2022-10-16T14:35:45.301Z,20.72
2022-10-16T14:36:47.446Z,20.75
2022-10-16T14:37:53.274Z,20.83
2022-10-16T14:39:04.786Z,20.95
2022-10-16T14:40:16.358Z,21.00
2022-10-16T14:41:22.632Z,21.11